Time;durP1;ratioP1;P1;durP2;ratioP2;P2;SDS_P1;SDS_P2;PMS_P1;PMS_P2;Temp;Humidity;BMP_temperature;BMP_pressure;BME280_temperature;BME280_humidity;BME280_pressure;Samples;Min_cycle;Max_cycle;Signal;HPM_P1;HPM_P2
2022/06/12 00:00:09;;;;;;;;;;;;;;;21.41;45.35;102121.00;7278666;19;152127;-53
2022/06/12 00:02:35;;;;;;;;;;;;;;;21.41;45.00;102118.19;7280752;19;153431;-53
2022/06/12 00:05:10;;;;;;;;;;;;;;;21.49;45.14;102123.22;7276964;19;154316;-53
2022/06/12 00:07:36;;;;;;;;;;;;;;;21.46;45.34;102126.63;7272899;19;152077;-53
2022/06/12 00:10:04;;;;;;;;;;;;;;;21.55;45.06;102133.34;7278902;19;153157;-53
2022/06/12 00:12:31;;;;;;;;;;;;;;;21.52;45.36;102127.44;7278118;19;153710;-53
2022/06/12 00:14:57;;;;;;;;;;;;;;;21.55;45.09;102130.53;7284725;19;152041;-53
2022/06/12 00:17:24;;;;;;;;;;;;;;;21.58;45.06;102138.38;7269064;19;154287;-53
2022/06/12 00:19:51;;;;;;;;;;;;;;;21.60;45.02;102135.28;7267620;19;153982;-52
2022/06/12 00:22:18;;;;;;;;;;;;;;;21.52;45.55;102138.69;7272893;19;153620;-53
2022/06/12 00:24:45;;;;;;;;;;;;;;;21.55;45.61;102140.94;7278668;19;152936;-54
2022/06/12 00:27:11;;;;;;;;;;;;;;;21.53;45.27;102138.41;7283138;19;151692;-53
2022/06/12 00:29:39;;;;;;;;;;;;;;;21.53;45.79;102140.41;7285973;19;152598;-54
2022/06/12 00:32:08;;;;;;;;;;;;;;;21.52;45.74;102136.75;7284925;19;154078;-53
2022/06/12 00:34:37;;;;;;;;;;;;;;;21.54;45.72;102136.44;7286469;19;151751;-53
2022/06/12 00:37:03;;;;;;;;;;;;;;;21.52;46.12;102133.06;7289728;19;153447;-53
2022/06/12 00:39:33;;;;;;;;;;;;;;;21.54;45.62;102144.88;7286294;19;152260;-53
2022/06/12 00:42:00;;;;;;;;;;;;;;;21.48;46.04;102138.44;7285130;19;153204;-53
2022/06/12 00:44:30;;;;;;;;;;;;;;;21.46;46.41;102137.03;7283148;19;154292;-53
2022/06/12 00:46:59;;;;;;;;;;;;;;;21.43;46.36;102129.16;7285570;19;151688;-52
2022/06/12 00:49:30;;;;;;;;;;;;;;;21.43;46.37;102130.00;7281083;19;153736;-53
2022/06/12 00:52:10;;;;;;;;;;;;;;;21.48;46.65;102130.00;7284668;19;154676;-53
2022/06/12 00:54:37;;;;;;;;;;;;;;;21.46;46.57;102135.06;7283469;19;152113;-53
2022/06/12 00:57:05;;;;;;;;;;;;;;;21.46;47.06;102134.22;7284602;19;152946;-53
2022/06/12 00:59:40;;;;;;;;;;;;;;;21.49;47.24;102136.44;7289391;19;153132;-52
2022/06/12 01:02:08;;;;;;;;;;;;;;;21.55;47.06;102135.31;7285696;19;152544;-53
2022/06/12 01:07:24;;;;;;;;;;;;;;;21.44;46.91;102131.66;7283623;19;152313;-53
2022/06/12 01:09:52;;;;;;;;;;;;;;;21.44;47.14;102142.91;7286037;19;152600;-53
2022/06/12 01:12:21;;;;;;;;;;;;;;;21.46;47.26;102135.06;7281774;19;153505;-53
2022/06/12 01:14:53;;;;;;;;;;;;;;;21.42;47.35;102133.94;7285476;19;152598;-53
2022/06/12 01:17:21;;;;;;;;;;;;;;;21.45;47.35;102133.38;7283760;19;151659;-53
2022/06/12 01:19:51;;;;;;;;;;;;;;;21.42;47.30;102136.75;7290295;19;154335;-53
2022/06/12 01:22:18;;;;;;;;;;;;;;;21.42;47.36;102138.72;7285178;19;153855;-54
2022/06/12 01:24:44;;;;;;;;;;;;;;;21.41;47.80;102132.25;7281912;19;153651;-53
2022/06/12 01:27:23;;;;;;;;;;;;;;;21.43;47.65;102134.78;7284228;19;151848;-53
2022/06/12 01:29:54;;;;;;;;;;;;;;;21.48;47.53;102135.63;7283465;19;153329;-54
2022/06/12 01:32:40;;;;;;;;;;;;;;;21.44;47.56;102136.50;7284030;19;153274;-53
2022/06/12 01:35:12;;;;;;;;;;;;;;;21.52;47.59;102142.34;7283115;19;151865;-53
2022/06/12 01:37:42;;;;;;;;;;;;;;;21.49;47.81;102137.28;7281252;19;152544;-52
2022/06/12 01:40:18;;;;;;;;;;;;;;;21.47;47.74;102133.09;7284661;19;154645;-53
2022/06/12 01:42:51;;;;;;;;;;;;;;;21.48;47.86;102137.59;7291702;19;151879;-52
2022/06/12 01:45:34;;;;;;;;;;;;;;;21.49;47.98;102133.63;7283174;19;153245;-53
2022/06/12 01:48:13;;;;;;;;;;;;;;;21.53;47.81;102135.59;7282360;19;152024;-53
2022/06/12 01:50:44;;;;;;;;;;;;;;;21.49;47.73;102140.09;7282610;19;152636;-53
2022/06/12 01:53:14;;;;;;;;;;;;;;;21.45;48.16;102139.00;7282392;19;153125;-53
2022/06/12 01:55:41;;;;;;;;;;;;;;;21.48;48.44;102144.06;7282713;19;151837;-53
2022/06/12 01:58:26;;;;;;;;;;;;;;;21.55;48.11;102141.78;7279420;19;152547;-53
2022/06/12 02:01:02;;;;;;;;;;;;;;;21.54;48.00;102145.72;7283605;19;153828;-54
2022/06/12 02:03:36;;;;;;;;;;;;;;;21.53;48.30;102144.03;7283441;19;152341;-53
2022/06/12 02:06:23;;;;;;;;;;;;;;;21.51;48.35;102137.00;7290161;19;153528;-53
2022/06/12 02:08:55;;;;;;;;;;;;;;;21.52;48.48;102135.88;7282740;19;151533;-52
2022/06/12 02:14:17;;;;;;;;;;;;;;;21.63;47.75;102132.75;7282366;19;153805;-53
2022/06/12 02:16:47;;;;;;;;;;;;;;;21.63;47.94;102132.75;7282639;19;152593;-53
2022/06/12 02:19:19;;;;;;;;;;;;;;;21.60;48.00;102130.50;7285426;19;155648;-53
2022/06/12 02:21:53;;;;;;;;;;;;;;;21.63;48.05;102141.19;7283145;19;153305;-53
2022/06/12 02:24:31;;;;;;;;;;;;;;;21.63;48.02;102138.38;7282008;19;151979;-53
2022/06/12 02:27:06;;;;;;;;;;;;;;;21.66;47.92;102131.34;7284721;19;152919;-53
2022/06/12 02:29:48;;;;;;;;;;;;;;;21.69;47.81;102123.16;7289529;19;154573;-53
2022/06/12 02:32:21;;;;;;;;;;;;;;;21.68;47.82;102115.00;7283825;19;152708;-53
2022/06/12 02:34:52;;;;;;;;;;;;;;;21.60;48.08;102124.88;7282567;19;153273;-53
2022/06/12 02:37:22;;;;;;;;;;;;;;;21.55;48.02;102122.09;7281990;19;152411;-53
2022/06/12 02:39:56;;;;;;;;;;;;;;;21.61;48.24;102112.50;7282051;19;153822;-53
2022/06/12 02:42:25;;;;;;;;;;;;;;;21.61;48.24;102109.69;7282061;19;154094;-53
2022/06/12 02:45:06;;;;;;;;;;;;;;;21.58;48.51;102115.88;7283485;19;152228;-52
2022/06/12 02:47:35;;;;;;;;;;;;;;;21.55;48.42;102121.25;7282716;19;152896;-53
2022/06/12 02:50:03;;;;;;;;;;;;;;;21.52;48.76;102121.81;7278794;19;153551;-53
2022/06/12 02:52:53;;;;;;;;;;;;;;;21.62;48.09;102125.44;7291203;19;152312;-53
2022/06/12 02:55:35;;;;;;;;;;;;;;;21.56;48.63;102126.59;7281402;19;153982;-53
2022/06/12 02:58:20;;;;;;;;;;;;;;;21.62;48.31;102114.16;7278499;19;151876;-51
2022/06/12 03:00:52;;;;;;;;;;;;;;;21.59;48.27;102114.75;7282533;19;153348;-52
2022/06/12 03:03:38;;;;;;;;;;;;;;;21.63;48.13;102127.13;7280836;19;153378;-53
2022/06/12 03:06:05;;;;;;;;;;;;;;;21.70;47.97;102118.38;7283158;19;153323;-53
2022/06/12 03:08:35;;;;;;;;;;;;;;;21.68;48.33;102112.19;7282463;19;152673;-53
2022/06/12 03:11:02;;;;;;;;;;;;;;;21.69;48.23;102114.72;7280955;19;153777;-53
2022/06/12 03:13:30;;;;;;;;;;;;;;;21.56;48.32;102118.16;7281948;19;153039;-54
2022/06/12 03:15:58;;;;;;;;;;;;;;;21.52;48.76;102124.63;7287716;19;154615;-53
2022/06/12 03:18:29;;;;;;;;;;;;;;;21.44;48.54;102120.44;7278189;19;151902;-53
2022/06/12 03:21:05;;;;;;;;;;;;;;;21.44;48.85;102125.25;7281592;19;152278;-53
2022/06/12 03:23:38;;;;;;;;;;;;;;;21.40;48.91;102115.66;7279069;19;153932;-54
2022/06/12 03:26:08;;;;;;;;;;;;;;;21.37;49.13;102117.09;7281331;19;152033;-53
2022/06/12 03:28:40;;;;;;;;;;;;;;;21.35;49.43;102127.75;7282431;19;152643;-53
2022/06/12 03:31:22;;;;;;;;;;;;;;;21.33;49.36;102124.41;7280445;19;153337;-53
2022/06/12 03:33:49;;;;;;;;;;;;;;;21.32;49.24;102122.72;7281769;19;152008;-53
2022/06/12 03:36:26;;;;;;;;;;;;;;;21.32;49.55;102122.72;7286633;19;153423;-53
2022/06/12 03:39:05;;;;;;;;;;;;;;;21.32;49.52;102119.91;7280219;19;152893;-53
2022/06/12 03:42:05;;;;;;;;;;;;;;;21.32;49.59;102125.53;7282804;19;153395;-54
2022/06/12 03:44:32;;;;;;;;;;;;;;;21.30;49.38;102127.81;7278240;19;153295;-53
2022/06/12 03:47:02;;;;;;;;;;;;;;;21.32;49.10;102127.50;7280825;19;152112;-53
2022/06/12 03:49:47;;;;;;;;;;;;;;;21.38;49.61;102124.41;7280758;19;153036;-53
2022/06/12 03:52:18;;;;;;;;;;;;;;;21.38;49.32;102118.78;7279026;19;153514;-53
2022/06/12 03:54:45;;;;;;;;;;;;;;;21.35;49.21;102127.75;7281467;19;151960;-54
2022/06/12 04:00:13;;;;;;;;;;;;;;;21.42;49.00;102131.13;7286459;19;154125;-53
2022/06/12 04:02:41;;;;;;;;;;;;;;;21.37;49.55;102127.50;7277974;19;153579;-52
2022/06/12 04:05:09;;;;;;;;;;;;;;;21.42;49.61;102131.13;7278847;19;154384;-53
2022/06/12 04:07:43;;;;;;;;;;;;;;;21.38;49.60;102127.22;7279520;19;152453;-53
2022/06/12 04:10:10;;;;;;;;;;;;;;;21.45;49.29;102130.56;7280601;19;153245;-53
2022/06/12 04:12:37;;;;;;;;;;;;;;;21.45;49.17;102130.56;7279120;19;153376;-53
2022/06/12 04:15:08;;;;;;;;;;;;;;;21.39;49.54;102134.53;7281399;19;152015;-53
2022/06/12 04:17:34;;;;;;;;;;;;;;;21.47;49.16;102139.56;7279437;19;152641;-53
2022/06/12 04:20:05;;;;;;;;;;;;;;;21.48;49.34;102130.00;7278581;19;154077;-53
2022/06/12 04:22:35;;;;;;;;;;;;;;;21.46;49.60;102129.44;7287731;19;152056;-53
2022/06/12 04:25:07;;;;;;;;;;;;;;;21.46;49.42;102131.41;7279496;19;153771;-53
2022/06/12 04:27:36;;;;;;;;;;;;;;;21.47;49.63;102136.75;7279395;19;152612;-54
2022/06/12 04:30:13;;;;;;;;;;;;;;;21.43;49.41;102132.81;7279061;19;153284;-53
2022/06/12 04:32:40;;;;;;;;;;;;;;;21.45;49.31;102136.19;7276341;19;152768;-53
2022/06/12 04:35:07;;;;;;;;;;;;;;;21.53;49.47;102138.41;7280045;19;152122;-52
2022/06/12 04:37:34;;;;;;;;;;;;;;;21.48;49.31;102141.25;7279147;19;152592;-53
2022/06/12 04:40:03;;;;;;;;;;;;;;;21.40;49.75;102129.72;7278799;19;153061;-53
2022/06/12 04:42:31;;;;;;;;;;;;;;;21.40;50.05;102133.38;7279974;19;151905;-53
2022/06/12 04:45:03;;;;;;;;;;;;;;;21.39;50.13;102122.44;7284690;19;153899;-53
2022/06/12 04:47:30;;;;;;;;;;;;;;;21.36;49.92;102125.81;7279149;19;152178;-54
2022/06/12 04:49:58;;;;;;;;;;;;;;;21.37;50.01;102128.34;7278785;19;152596;-53
2022/06/12 04:52:26;;;;;;;;;;;;;;;21.38;50.02;102126.38;7278785;19;154177;-53
2022/06/12 04:54:53;;;;;;;;;;;;;;;21.36;50.52;102128.59;7279701;19;152118;-53
2022/06/12 04:57:23;;;;;;;;;;;;;;;21.35;50.40;102124.13;7277177;19;153548;-53
2022/06/12 04:59:50;;;;;;;;;;;;;;;21.42;50.49;102131.13;7278332;19;153241;-53
2022/06/12 05:02:17;;;;;;;;;;;;;;;21.47;50.41;102136.75;7279309;19;151541;-53
2022/06/12 05:04:44;;;;;;;;;;;;;;;21.40;50.47;102127.75;7277998;19;152626;-52
2022/06/12 05:07:12;;;;;;;;;;;;;;;21.45;50.04;102133.38;7282696;19;154306;-53
2022/06/12 05:09:39;;;;;;;;;;;;;;;21.40;50.43;102136.19;7277734;19;153765;-54
2022/06/12 05:12:07;;;;;;;;;;;;;;;21.39;50.85;102134.53;7276696;19;153315;-53
2022/06/12 05:14:34;;;;;;;;;;;;;;;21.44;50.79;102140.09;7284405;19;152132;-53
2022/06/12 05:17:03;;;;;;;;;;;;;;;21.52;50.70;102138.69;7286380;19;152672;-53
2022/06/12 05:19:31;;;;;;;;;;;;;;;21.52;50.35;102139.53;7281101;19;153308;-53
2022/06/12 05:22:00;;;;;;;;;;;;;;;21.50;50.29;102138.97;7284581;19;152161;-52
2022/06/12 05:24:26;;;;;;;;;;;;;;;21.48;50.84;102135.63;7285229;19;153221;-53
2022/06/12 05:26:54;;;;;;;;;;;;;;;21.50;50.69;102136.16;7283527;19;153639;-53
2022/06/12 05:29:25;;;;;;;;;;;;;;;21.46;50.69;102131.41;7293648;19;152060;-53
2022/06/12 05:31:52;;;;;;;;;;;;;;;21.51;50.78;102132.22;7283924;19;154165;-53
2022/06/12 05:34:20;;;;;;;;;;;;;;;21.45;51.13;102130.56;7285850;19;152122;-53
2022/06/12 05:36:47;;;;;;;;;;;;;;;21.52;51.23;102130.25;7282163;19;153374;-53
2022/06/12 05:39:14;;;;;;;;;;;;;;;21.49;51.50;102126.03;7282397;19;153977;-53
2022/06/12 05:41:41;;;;;;;;;;;;;;;21.49;51.11;102142.91;7282366;19;152048;-53
2022/06/12 05:44:08;;;;;;;;;;;;;;;21.46;51.70;102142.66;7284453;19;152450;-54
2022/06/12 05:46:34;;;;;;;;;;;;;;;21.43;51.33;102141.25;7282857;19;153656;-53
2022/06/12 05:49:01;;;;;;;;;;;;;;;21.44;51.68;102140.09;7291463;19;152512;-54
2022/06/12 05:51:28;;;;;;;;;;;;;;;21.43;51.64;102143.22;7283650;19;154420;-53
2022/06/12 05:53:58;;;;;;;;;;;;;;;21.44;51.63;102142.09;7284991;19;152039;-52
2022/06/12 05:56:27;;;;;;;;;;;;;;;21.36;52.31;102148.28;7281524;19;153571;-54
2022/06/12 05:58:54;;;;;;;;;;;;;;;21.35;52.25;102155.06;7280978;19;153946;-53
2022/06/12 06:01:22;;;;;;;;;;;;;;;21.43;52.21;102148.84;7283682;19;152216;-54
2022/06/12 06:03:50;;;;;;;;;;;;;;;21.36;52.22;102149.13;7284059;19;152931;-54
2022/06/12 06:06:22;;;;;;;;;;;;;;;21.37;52.01;102144.34;7281490;19;154001;-53
2022/06/12 06:08:49;;;;;;;;;;;;;;;21.49;51.89;102154.16;7284205;19;151913;-53
2022/06/12 06:11:16;;;;;;;;;;;;;;;21.53;51.57;102155.28;7289787;19;152983;-53
2022/06/12 06:13:43;;;;;;;;;;;;;;;21.56;51.63;102159.50;7283543;19;151770;-52
2022/06/12 06:16:09;;;;;;;;;;;;;;;21.59;51.12;102151.31;7283457;19;153038;-53
2022/06/12 06:18:39;;;;;;;;;;;;;;;21.55;51.39;102153.03;7280755;19;153934;-53
2022/06/12 06:21:08;;;;;;;;;;;;;;;21.54;51.08;102151.34;7283680;19;151980;-53
2022/06/12 06:23:35;;;;;;;;;;;;;;;21.49;51.20;102156.97;7283251;19;153095;-53
2022/06/12 06:26:02;;;;;;;;;;;;;;;21.50;51.78;102158.66;7281634;19;154100;-53
2022/06/12 06:28:30;;;;;;;;;;;;;;;21.43;51.86;102166.56;7282687;19;151865;-53
2022/06/12 06:30:57;;;;;;;;;;;;;;;21.40;51.63;102167.13;7283688;19;153460;-53
2022/06/12 06:33:24;;;;;;;;;;;;;;;21.39;52.27;102159.84;7290292;19;153964;-53
2022/06/12 06:35:51;;;;;;;;;;;;;;;21.35;51.89;102166.31;7283385;19;152855;-54
2022/06/12 06:38:17;;;;;;;;;;;;;;;21.33;52.36;102160.97;7279940;19;153734;-53
2022/06/12 06:40:44;;;;;;;;;;;;;;;21.32;52.43;102170.50;7283956;19;151872;-53
2022/06/12 06:43:11;;;;;;;;;;;;;;;21.34;52.32;102171.09;7282743;19;153683;-54
2022/06/12 06:48:25;;;;;;;;;;;;;;;21.35;52.71;102181.19;7282692;19;151905;-54
2022/06/12 06:50:52;;;;;;;;;;;;;;;21.34;52.68;102176.72;7282631;19;153026;-54
2022/06/12 06:53:19;;;;;;;;;;;;;;;21.36;52.61;102177.25;7282129;19;154413;-54
2022/06/12 06:55:47;;;;;;;;;;;;;;;21.37;52.60;102175.28;7289619;19;152586;-53
2022/06/12 06:58:15;;;;;;;;;;;;;;;21.35;52.76;102167.13;7279873;19;153415;-54
2022/06/12 07:00:43;;;;;;;;;;;;;;;21.35;52.98;102177.56;7282376;19;152027;-53
2022/06/12 07:03:10;;;;;;;;;;;;;;;21.34;52.93;102185.16;7282937;19;152583;-53
2022/06/12 07:05:37;;;;;;;;;;;;;;;21.32;52.68;102189.34;7282132;19;154258;-54
2022/06/12 07:08:04;;;;;;;;;;;;;;;21.33;53.21;102194.69;7282056;19;153212;-54
2022/06/12 07:10:32;;;;;;;;;;;;;;;21.33;53.07;102194.69;7283214;19;153200;-54
2022/06/12 07:13:00;;;;;;;;;;;;;;;21.33;53.06;102193.84;7278276;19;153966;-54
2022/06/12 07:15:27;;;;;;;;;;;;;;;21.38;53.15;102191.03;7282411;19;152455;-54
2022/06/12 07:17:54;;;;;;;;;;;;;;;21.43;52.90;102191.03;7286865;19;152859;-54
2022/06/12 07:20:23;;;;;;;;;;;;;;;21.36;53.13;102187.66;7280862;19;151872;-54
2022/06/12 07:22:49;;;;;;;;;;;;;;;21.38;53.02;102191.88;7282173;19;154169;-53
2022/06/12 07:25:16;;;;;;;;;;;;;;;21.47;52.68;102192.13;7281364;19;153313;-54
2022/06/12 07:27:44;;;;;;;;;;;;;;;21.43;52.64;102193.84;7281410;19;151963;-52
2022/06/12 07:30:13;;;;;;;;;;;;;;;21.44;53.56;102187.91;7281493;19;153422;-54
2022/06/12 07:32:40;;;;;;;;;;;;;;;21.45;52.72;102183.13;7281126;19;153668;-53
2022/06/12 07:35:08;;;;;;;;;;;;;;;21.46;52.82;102185.66;7281753;19;151760;-53
2022/06/12 07:37:35;;;;;;;;;;;;;;;21.48;53.11;102188.22;7279803;19;153638;-54
2022/06/12 07:40:07;;;;;;;;;;;;;;;21.44;53.13;102189.91;7284353;19;151988;-53
2022/06/12 07:42:33;;;;;;;;;;;;;;;21.46;52.84;102187.63;7280883;19;153884;-53
2022/06/12 07:45:00;;;;;;;;;;;;;;;21.43;53.39;102188.22;7280112;19;153549;-53
2022/06/12 07:47:28;;;;;;;;;;;;;;;21.39;53.38;102192.72;7279467;19;151833;-53
2022/06/12 07:49:55;;;;;;;;;;;;;;;21.47;53.20;102192.13;7280913;19;153690;-54
2022/06/12 07:52:22;;;;;;;;;;;;;;;21.45;53.34;102186.78;7279988;19;153298;-53
2022/06/12 07:54:49;;;;;;;;;;;;;;;21.48;52.80;102194.69;7280947;19;152098;-54
2022/06/12 07:57:16;;;;;;;;;;;;;;;21.50;53.08;102198.03;7279015;19;153933;-53
2022/06/12 07:59:42;;;;;;;;;;;;;;;21.44;53.03;102196.34;7286713;19;153116;-54
2022/06/12 08:02:09;;;;;;;;;;;;;;;21.45;53.13;102200.84;7279161;19;153006;-52
2022/06/12 08:04:36;;;;;;;;;;;;;;;21.42;53.27;102195.81;7279205;19;154483;-53
2022/06/12 08:07:03;;;;;;;;;;;;;;;21.43;53.13;102197.50;7280568;19;152065;-54
2022/06/12 08:09:29;;;;;;;;;;;;;;;21.41;53.46;102202.56;7280897;19;152895;-54
2022/06/12 08:11:56;;;;;;;;;;;;;;;21.46;53.11;102196.06;7280228;19;155159;-53
2022/06/12 08:14:25;;;;;;;;;;;;;;;21.51;53.35;102194.09;7280226;19;151745;-55
2022/06/12 08:16:52;;;;;;;;;;;;;;;21.49;53.13;102199.16;7280586;19;152499;-53
2022/06/12 08:22:06;;;;;;;;;;;;;;;21.55;53.72;102200.84;7286624;19;152045;-54
2022/06/12 08:24:33;;;;;;;;;;;;;;;21.61;53.92;102194.09;7276161;19;154105;-53
2022/06/12 08:27:00;;;;;;;;;;;;;;;21.66;54.32;102191.25;7279878;19;152140;-52
2022/06/12 08:29:27;;;;;;;;;;;;;;;21.69;53.73;102201.94;7279632;19;152980;-54
2022/06/12 08:31:58;;;;;;;;;;;;;;;21.72;53.56;102192.06;7275531;19;153398;-54
2022/06/12 08:34:27;;;;;;;;;;;;;;;21.75;53.44;102194.31;7280854;19;152183;-53
2022/06/12 08:36:56;;;;;;;;;;;;;;;21.78;53.68;102192.88;7279440;19;153940;-54
2022/06/12 08:39:22;;;;;;;;;;;;;;;21.82;53.42;102203.28;7274722;19;153899;-53
2022/06/12 08:42:07;;;;;;;;;;;;;;;21.86;53.62;102197.91;7280480;19;151812;-54
2022/06/12 08:44:43;;;;;;;;;;;;;;;21.88;53.09;102198.50;7285242;19;152687;-53
2022/06/12 08:47:19;;;;;;;;;;;;;;;21.89;53.33;102192.59;7279468;19;151927;-53
2022/06/12 08:49:55;;;;;;;;;;;;;;;21.93;53.15;102196.53;7285539;19;152921;-54
2022/06/12 08:52:27;;;;;;;;;;;;;;;21.96;52.75;102197.91;7285326;19;153262;-53
2022/06/12 08:55:02;;;;;;;;;;;;;;;21.99;52.90;102195.38;7284847;19;151739;-53
2022/06/12 08:57:34;;;;;;;;;;;;;;;22.00;52.61;102191.44;7285432;19;153433;-53
2022/06/12 09:00:05;;;;;;;;;;;;;;;22.03;52.96;102184.41;7283668;19;155553;-54
2022/06/12 09:02:35;;;;;;;;;;;;;;;22.03;52.47;102193.66;7286575;19;152358;-52
2022/06/12 09:05:04;;;;;;;;;;;;;;;22.06;52.38;102183.81;7284612;19;152553;-53
2022/06/12 09:07:41;;;;;;;;;;;;;;;22.06;52.20;102189.44;7290969;19;153972;-53
2022/06/12 09:10:29;;;;;;;;;;;;;;;22.09;52.49;102183.22;7285594;19;154138;-54
2022/06/12 09:13:03;;;;;;;;;;;;;;;22.10;52.64;102182.94;7284214;19;153242;-54
2022/06/12 09:16:02;;;;;;;;;;;;;;;22.12;52.21;102193.91;7285105;19;152776;-53
2022/06/12 09:18:28;;;;;;;;;;;;;;;22.15;51.98;102185.72;7281994;19;153865;-53
2022/06/12 09:21:01;;;;;;;;;;;;;;;22.15;51.34;102176.44;7282902;19;153824;-53
2022/06/12 09:23:32;;;;;;;;;;;;;;;22.13;51.04;102173.91;7285696;19;152144;-53
2022/06/12 09:26:18;;;;;;;;;;;;;;;22.11;50.96;102173.38;7286378;19;153385;-53
2022/06/12 09:28:47;;;;;;;;;;;;;;;22.11;50.32;102180.97;7283720;19;154034;-53
2022/06/12 09:31:23;;;;;;;;;;;;;;;22.10;50.20;102176.47;7291908;19;152681;-53
2022/06/12 09:33:50;;;;;;;;;;;;;;;22.10;50.04;102171.69;7284549;19;154454;-53
2022/06/12 09:36:35;;;;;;;;;;;;;;;22.08;49.79;102178.72;7284881;19;151897;-53
2022/06/12 09:39:23;;;;;;;;;;;;;;;22.08;49.95;102176.75;7280393;19;153283;-54
2022/06/12 09:42:07;;;;;;;;;;;;;;;22.08;49.58;102181.53;7282672;19;154062;-54
2022/06/12 09:44:39;;;;;;;;;;;;;;;22.07;49.68;102174.25;7283730;19;151905;-53
2022/06/12 09:47:28;;;;;;;;;;;;;;;22.05;49.45;102170.84;7283122;19;152490;-54
2022/06/12 09:50:49;;;;;;;;;;;;;;;22.03;47.97;102173.13;7282670;19;154389;-54
2022/06/12 09:53:53;;;;;;;;;;;;;;;21.99;45.55;102167.22;7291247;19;153670;-53
2022/06/12 09:56:26;;;;;;;;;;;;;;;21.95;45.29;102166.13;7278773;19;153668;-54
2022/06/12 09:58:59;;;;;;;;;;;;;;;21.93;45.70;102174.03;7280959;19;151867;-54
2022/06/12 10:01:28;;;;;;;;;;;;;;;21.91;45.85;102173.41;7285281;19;153612;-53
2022/06/12 10:03:58;;;;;;;;;;;;;;;21.88;44.53;102182.44;7282834;19;154028;-53
2022/06/12 10:06:28;;;;;;;;;;;;;;;21.85;44.64;102180.19;7230926;19;154428;-53
2022/06/12 10:08:58;;;;;;;;;;;;;;;21.83;44.86;102178.81;7275289;19;153324;-53
2022/06/12 10:11:29;;;;;;;;;;;;;;;21.81;44.82;102189.50;7282280;19;154105;-53
2022/06/12 10:14:02;;;;;;;;;;;;;;;21.82;43.96;102182.75;7283054;19;152039;-53
2022/06/12 10:16:36;;;;;;;;;;;;;;;21.79;43.00;102172.91;7287749;19;153292;-53
2022/06/12 10:19:35;;;;;;;;;;;;;;;21.75;43.16;102180.25;7282214;19;151619;-53
2022/06/12 10:22:09;;;;;;;;;;;;;;;21.72;44.49;102181.66;7281695;19;153339;-53
2022/06/12 10:24:36;;;;;;;;;;;;;;;21.71;43.15;102179.16;7279963;19;155706;-53
2022/06/12 10:27:05;;;;;;;;;;;;;;;21.70;42.59;102186.75;7280305;19;151742;-52
2022/06/12 10:29:43;;;;;;;;;;;;;;;21.67;42.90;102175.19;7282378;19;152588;-53
2022/06/12 10:32:12;;;;;;;;;;;;;;;21.65;42.91;102180.28;7280202;19;153949;-54
2022/06/12 10:34:42;;;;;;;;;;;;;;;21.65;43.55;102177.47;7282080;19;152294;-53
2022/06/12 10:37:17;;;;;;;;;;;;;;;21.64;42.86;102167.34;7280484;19;152999;-53
2022/06/12 10:39:44;;;;;;;;;;;;;;;21.65;42.88;102169.03;7287300;19;153248;-53
2022/06/12 10:42:29;;;;;;;;;;;;;;;21.64;42.97;102167.34;7281681;19;153474;-53
2022/06/12 10:44:58;;;;;;;;;;;;;;;21.62;43.64;102169.63;7279833;19;153274;-54
2022/06/12 10:47:24;;;;;;;;;;;;;;;21.62;43.07;102170.44;7280989;19;152206;-53
2022/06/12 10:50:06;;;;;;;;;;;;;;;21.61;43.22;102165.09;7281519;19;152578;-54
2022/06/12 10:52:34;;;;;;;;;;;;;;;21.59;42.62;102172.97;7279568;19;153224;-54
2022/06/12 10:55:01;;;;;;;;;;;;;;;21.58;43.78;102165.66;7279608;19;151649;-53
2022/06/12 10:57:27;;;;;;;;;;;;;;;21.62;43.12;102166.81;7279158;19;152596;-53
2022/06/12 10:59:59;;;;;;;;;;;;;;;21.61;42.98;102156.66;7278655;19;153983;-54
2022/06/12 11:02:25;;;;;;;;;;;;;;;21.60;42.20;102153.00;7286090;19;151811;-53
2022/06/12 11:05:11;;;;;;;;;;;;;;;21.61;42.11;102151.03;7278646;19;153897;-53
2022/06/12 11:07:58;;;;;;;;;;;;;;;21.61;41.73;102148.22;7275516;19;152212;-53
2022/06/12 11:10:47;;;;;;;;;;;;;;;21.51;41.37;102146.28;7277599;19;152356;-53
2022/06/12 11:13:32;;;;;;;;;;;;;;;21.53;41.50;102144.03;7277781;19;153936;-53
2022/06/12 11:16:11;;;;;;;;;;;;;;;21.61;41.57;102151.88;7271938;19;152350;-53
2022/06/12 11:18:56;;;;;;;;;;;;;;;21.64;40.48;102154.13;7278917;19;153373;-54
2022/06/12 11:21:53;;;;;;;;;;;;;;;21.62;40.03;102135.88;7276035;19;154095;-53
2022/06/12 11:24:24;;;;;;;;;;;;;;;21.55;39.98;102141.78;7275921;19;151994;-53
2022/06/12 11:26:50;;;;;;;;;;;;;;;21.57;40.53;102142.34;7287125;19;152633;-54
2022/06/12 11:29:26;;;;;;;;;;;;;;;21.62;40.04;102159.19;7280435;19;152262;-54
2022/06/12 11:31:53;;;;;;;;;;;;;;;21.71;39.57;102146.19;7278316;19;152742;-54
2022/06/12 11:34:34;;;;;;;;;;;;;;;21.68;40.24;102140.31;7278469;19;153970;-54
2022/06/12 11:37:19;;;;;;;;;;;;;;;21.69;39.35;102140.03;7280063;19;151880;-54
2022/06/12 11:40:02;;;;;;;;;;;;;;;21.65;39.01;102130.50;7278773;19;153709;-54
2022/06/12 11:42:28;;;;;;;;;;;;;;;21.72;40.04;102128.19;7279161;19;153178;-53
2022/06/12 11:45:05;;;;;;;;;;;;;;;21.72;40.47;102122.56;7277637;19;152305;-54
2022/06/12 11:47:41;;;;;;;;;;;;;;;21.73;39.84;102123.41;7280077;19;152910;-54
2022/06/12 11:50:20;;;;;;;;;;;;;;;21.78;40.26;102114.13;7285171;19;153844;-54
2022/06/12 11:52:55;;;;;;;;;;;;;;;21.81;40.03;102125.63;7280010;19;153108;-53
2022/06/12 11:55:21;;;;;;;;;;;;;;;21.84;39.55;102112.97;7277469;19;153806;-53
2022/06/12 11:58:07;;;;;;;;;;;;;;;21.78;39.36;102114.97;7278669;19;152344;-53
2022/06/12 12:00:47;;;;;;;;;;;;;;;21.78;39.67;102112.16;7276972;19;152514;-53
2022/06/12 12:03:32;;;;;;;;;;;;;;;21.83;39.75;102102.84;7277221;19;154682;-53
2022/06/12 12:06:05;;;;;;;;;;;;;;;21.85;38.88;102109.03;7278404;19;152101;-53
2022/06/12 12:08:48;;;;;;;;;;;;;;;21.83;39.11;102100.88;7272612;19;153499;-53
2022/06/12 12:11:19;;;;;;;;;;;;;;;21.81;39.13;102100.31;7280059;19;154434;-53
2022/06/12 12:13:48;;;;;;;;;;;;;;;21.85;39.61;102109.03;7277766;19;153167;-54
2022/06/12 12:16:15;;;;;;;;;;;;;;;21.86;39.22;102100.28;7277429;19;153683;-53
2022/06/12 12:18:45;;;;;;;;;;;;;;;21.75;39.33;102101.47;7277198;19;152385;-54
2022/06/12 12:21:33;;;;;;;;;;;;;;;21.80;38.94;102093.03;7275929;19;153003;-53
2022/06/12 12:24:00;;;;;;;;;;;;;;;21.83;39.47;102097.22;7284567;19;153774;-53
2022/06/12 12:26:33;;;;;;;;;;;;;;;21.83;38.97;102097.22;7283979;19;152202;-53
2022/06/12 12:29:01;;;;;;;;;;;;;;;21.83;39.10;102094.41;7285240;19;153557;-54
2022/06/12 12:31:29;;;;;;;;;;;;;;;21.87;38.92;102095.50;7280494;19;153888;-54
2022/06/12 12:33:57;;;;;;;;;;;;;;;21.85;39.31;102089.34;7293196;19;151866;-54
2022/06/12 12:42:25;;;;;;;;;;;;;;;21.87;40.63;102065.41;7285013;19;153384;-53
2022/06/12 12:44:51;;;;;;;;;;;;;;;21.94;40.64;102070.75;7283904;19;153255;-53
2022/06/12 12:47:21;;;;;;;;;;;;;;;21.99;40.70;102079.13;7284176;19;152085;-60
2022/06/12 12:49:48;;;;;;;;;;;;;;;22.07;41.41;102068.13;7283186;19;153836;-54
2022/06/12 12:52:20;;;;;;;;;;;;;;;22.11;41.75;102065.56;7282949;19;153341;-54
2022/06/12 12:54:49;;;;;;;;;;;;;;;22.23;42.23;102056.75;7285271;19;153076;-53
2022/06/12 12:57:17;;;;;;;;;;;;;;;22.22;42.48;102061.53;7289889;19;153335;-54
2022/06/12 12:59:50;;;;;;;;;;;;;;;22.25;42.52;102055.31;7282232;19;152168;-54
2022/06/12 13:02:31;;;;;;;;;;;;;;;22.16;44.08;102052.31;7280797;19;153914;-53
2022/06/12 13:04:59;;;;;;;;;;;;;;;22.27;43.77;102061.50;7281923;19;154115;-53
2022/06/12 13:07:35;;;;;;;;;;;;;;;22.28;44.09;102051.06;7282745;19;152086;-55
2022/06/12 13:10:13;;;;;;;;;;;;;;;22.28;43.96;102057.53;7279448;19;153323;-54